createdAt,value
2017-04-15T00:01:03.195Z,1010.39
2017-04-15T00:02:13.154Z,1010.37
2017-04-15T00:03:23.085Z,1010.34
2017-04-15T00:04:33.014Z,1010.32
2017-04-15T00:05:43.272Z,1010.35
2017-04-15T00:06:53.492Z,1010.34
2017-04-15T00:08:03.345Z,1010.37
2017-04-15T00:09:13.266Z,1010.38
2017-04-15T00:10:23.865Z,1010.34
2017-04-15T00:11:33.773Z,1010.34
2017-04-15T00:12:43.981Z,1010.35
2017-04-15T00:13:54.508Z,1010.36
2017-04-15T00:15:04.454Z,1010.34
2017-04-15T00:16:14.370Z,1010.35
2017-04-15T00:17:23.971Z,1010.33
2017-04-15T00:18:34.204Z,1010.37
2017-04-15T00:19:44.258Z,1010.35
2017-04-15T00:20:54.235Z,1010.31
2017-04-15T00:22:04.444Z,1010.28
2017-04-15T00:23:14.681Z,1010.32
2017-04-15T00:24:24.911Z,1010.24
2017-04-15T00:25:35.098Z,1010.26
2017-04-15T00:26:45.009Z,1010.27
2017-04-15T00:27:55.247Z,1010.2
2017-04-15T00:29:05.535Z,1010.28
2017-04-15T00:30:15.139Z,1010.19
2017-04-15T00:31:25.688Z,1010.25
2017-04-15T00:32:35.602Z,1010.25
2017-04-15T00:33:45.856Z,1010.25
2017-04-15T00:34:55.764Z,1010.24
2017-04-15T00:36:05.682Z,1010.24
2017-04-15T00:37:15.583Z,1010.21
2017-04-15T00:38:25.805Z,1010.21
2017-04-15T00:39:35.411Z,1010.17
2017-04-15T00:40:45.341Z,1010.21
2017-04-15T00:41:55.573Z,1010.14
2017-04-15T00:43:05.810Z,1010.17
2017-04-15T00:44:15.689Z,1010.16
2017-04-15T00:45:25.909Z,1010.18
2017-04-15T00:46:36.143Z,1010.15
2017-04-15T00:47:46.068Z,1010.14
2017-04-15T00:48:56.445Z,1010.12
2017-04-15T00:50:06.365Z,1010.14
2017-04-15T00:51:16.265Z,1010.13
2017-04-15T00:52:26.468Z,1010.12
2017-04-15T00:53:36.694Z,1010.14
2017-04-15T00:54:46.469Z,1010.12
2017-04-15T00:55:56.381Z,1010.13
2017-04-15T00:57:06.614Z,1010.09
2017-04-15T00:58:16.840Z,1010.1
2017-04-15T00:59:26.742Z,1010.14
2017-04-15T01:00:36.798Z,1010.06
2017-04-15T01:01:47.004Z,1010.08
2017-04-15T01:02:57.622Z,1010.08
2017-04-15T01:04:07.545Z,1010.08
2017-04-15T01:05:17.151Z,1010.08
2017-04-15T01:06:27.357Z,1010.07
2017-04-15T01:07:37.255Z,1010.08
2017-04-15T01:08:47.157Z,1010.06
2017-04-15T01:09:57.076Z,1010.08
2017-04-15T01:11:06.998Z,1010.06
2017-04-15T01:12:17.056Z,1010.06
2017-04-15T01:13:26.670Z,1010.11
2017-04-15T01:14:36.312Z,1010.08
2017-04-15T01:15:46.534Z,1010.04
2017-04-15T01:16:55.858Z,1010.07
2017-04-15T01:18:06.084Z,1010.09
2017-04-15T01:19:16.103Z,1010.05
2017-04-15T01:20:26.015Z,1010.05
2017-04-15T01:21:36.274Z,1010.05
2017-04-15T01:22:46.499Z,1010.06
2017-04-15T01:23:56.560Z,1010.03
2017-04-15T01:25:06.772Z,1010.04
2017-04-15T01:26:16.669Z,1010
2017-04-15T01:27:26.870Z,1010.03
2017-04-15T01:28:36.803Z,1009.98
2017-04-15T01:29:47.162Z,1009.99
2017-04-15T01:30:57.075Z,1010
2017-04-15T01:32:07.289Z,1009.95
2017-04-15T01:33:17.208Z,1009.98
2017-04-15T01:34:27.106Z,1009.93
2017-04-15T01:35:37.347Z,1009.92
2017-04-15T01:36:47.246Z,1009.94
2017-04-15T01:37:57.145Z,1009.96
2017-04-15T01:39:07.350Z,1009.95
2017-04-15T01:40:17.563Z,1009.94
2017-04-15T01:41:27.575Z,1009.92
2017-04-15T01:42:37.499Z,1009.93
2017-04-15T01:43:47.420Z,1009.95
2017-04-15T01:44:57.601Z,1009.95
2017-04-15T01:46:07.814Z,1009.93
2017-04-15T01:47:18.401Z,1009.95
2017-04-15T01:48:28.616Z,1009.9
2017-04-15T01:49:38.847Z,1009.89
2017-04-15T01:50:48.130Z,1009.93
2017-04-15T01:51:57.731Z,1009.91
2017-04-15T01:53:08.309Z,1009.9
2017-04-15T01:54:18.528Z,1009.94
2017-04-15T01:55:28.768Z,1009.94
2017-04-15T01:56:38.363Z,1009.89
2017-04-15T01:57:47.960Z,1009.89
2017-04-15T01:58:58.533Z,1009.89
2017-04-15T02:00:08.432Z,1009.87
2017-04-15T02:01:18.641Z,1009.88
2017-04-15T02:02:28.868Z,1009.89
2017-04-15T02:03:38.798Z,1009.86
2017-04-15T02:04:49.013Z,1009.84
2017-04-15T02:05:59.217Z,1009.87
2017-04-15T02:07:09.445Z,1009.86
2017-04-15T02:08:19.653Z,1009.84
2017-04-15T02:09:29.575Z,1009.84
2017-04-15T02:10:39.038Z,1009.85
2017-04-15T02:11:48.928Z,1009.83
2017-04-15T02:12:58.825Z,1009.86
2017-04-15T02:14:09.069Z,1009.85
2017-04-15T02:15:18.673Z,1009.85
2017-04-15T02:16:28.947Z,1009.84
2017-04-15T02:17:38.858Z,1009.84
2017-04-15T02:18:48.753Z,1009.86
2017-04-15T02:19:58.683Z,1009.85
2017-04-15T02:21:08.295Z,1009.83
2017-04-15T02:22:18.169Z,1009.83
2017-04-15T02:23:28.087Z,1009.85
2017-04-15T02:24:38.033Z,1009.83
2017-04-15T02:25:48.248Z,1009.87
2017-04-15T02:26:57.549Z,1009.85
2017-04-15T02:28:07.802Z,1009.91
2017-04-15T02:29:17.706Z,1009.89
2017-04-15T02:30:27.311Z,1009.87
2017-04-15T02:31:37.520Z,1009.88
2017-04-15T02:32:47.131Z,1009.85
2017-04-15T02:33:57.704Z,1009.82
2017-04-15T02:35:08.033Z,1009.85
2017-04-15T02:36:17.376Z,1009.82
2017-04-15T02:37:27.278Z,1009.81
2017-04-15T02:38:37.189Z,1009.8
2017-04-15T02:39:46.605Z,1009.79
2017-04-15T02:40:56.506Z,1009.77
2017-04-15T02:42:06.415Z,1009.74
2017-04-15T02:43:16.651Z,1009.71
2017-04-15T02:44:26.551Z,1009.72
2017-04-15T02:45:36.941Z,1009.71
2017-04-15T02:46:46.537Z,1009.7
2017-04-15T02:47:56.526Z,1009.69
2017-04-15T02:49:06.822Z,1009.66
2017-04-15T02:50:16.721Z,1009.62
2017-04-15T02:51:26.972Z,1009.6
2017-04-15T02:52:37.173Z,1009.62
2017-04-15T02:53:47.071Z,1009.58
2017-04-15T02:54:56.662Z,1009.6
2017-04-15T02:56:06.866Z,1009.56
2017-04-15T02:57:16.194Z,1009.54
2017-04-15T02:58:25.481Z,1009.55
2017-04-15T02:59:35.373Z,1009.54
2017-04-15T03:00:45.583Z,1009.52
2017-04-15T03:01:55.171Z,1009.52
2017-04-15T03:03:05.676Z,1009.49
2017-04-15T03:04:15.902Z,1009.52
2017-04-15T03:05:26.099Z,1009.47
2017-04-15T03:06:35.398Z,1009.45
2017-04-15T03:07:45.608Z,1009.47
2017-04-15T03:08:55.583Z,1009.46
2017-04-15T03:10:05.793Z,1009.43
2017-04-15T03:11:16.023Z,1009.41
2017-04-15T03:12:25.919Z,1009.43
2017-04-15T03:13:35.828Z,1009.42
2017-04-15T03:14:46.197Z,1009.43
2017-04-15T03:15:55.805Z,1009.43
2017-04-15T03:17:05.467Z,1009.4
2017-04-15T03:18:15.860Z,1009.39
2017-04-15T03:19:25.857Z,1009.38
2017-04-15T03:20:36.294Z,1009.37
2017-04-15T03:21:46.532Z,1009.37
2017-04-15T03:22:56.453Z,1009.35
2017-04-15T03:24:06.347Z,1009.39
2017-04-15T03:25:16.237Z,1009.36
2017-04-15T03:26:25.981Z,1009.4
2017-04-15T03:27:35.879Z,1009.33
2017-04-15T03:28:46.090Z,1009.36
2017-04-15T03:29:55.682Z,1009.33
2017-04-15T03:31:05.595Z,1009.31
2017-04-15T03:32:15.789Z,1009.31
2017-04-15T03:33:25.990Z,1009.28
2017-04-15T03:34:36.208Z,1009.29
2017-04-15T03:35:46.407Z,1009.31
2017-04-15T03:36:56.631Z,1009.34
2017-04-15T03:38:06.984Z,1009.31
2017-04-15T03:39:17.194Z,1009.32
2017-04-15T03:40:27.093Z,1009.33
2017-04-15T03:41:36.987Z,1009.33
2017-04-15T03:42:46.887Z,1009.36
2017-04-15T03:43:57.252Z,1009.37
2017-04-15T03:45:07.155Z,1009.34
2017-04-15T03:46:17.051Z,1009.39
2017-04-15T03:47:27.277Z,1009.34
2017-04-15T03:48:37.491Z,1009.32
2017-04-15T03:49:47.552Z,1009.32
2017-04-15T03:50:57.753Z,1009.32
2017-04-15T03:52:07.646Z,1009.29
2017-04-15T03:53:16.840Z,1009.26
2017-04-15T03:54:26.841Z,1009.26
2017-04-15T03:55:36.842Z,1009.28
2017-04-15T03:56:47.209Z,1009.27
2017-04-15T03:57:57.110Z,1009.27
2017-04-15T03:59:06.703Z,1009.28
2017-04-15T04:00:16.922Z,1009.28
2017-04-15T04:01:27.289Z,1009.24
2017-04-15T04:02:37.183Z,1009.25
2017-04-15T04:03:47.089Z,1009.18
2017-04-15T04:04:56.990Z,1009.22
2017-04-15T04:06:07.197Z,1009.2
2017-04-15T04:07:17.259Z,1009.2
2017-04-15T04:08:26.859Z,1009.17
2017-04-15T04:09:36.464Z,1009.22
2017-04-15T04:10:46.062Z,1009.2
2017-04-15T04:11:56.273Z,1009.18
2017-04-15T04:13:06.358Z,1009.22
2017-04-15T04:14:16.290Z,1009.19
2017-04-15T04:15:26.186Z,1009.2
2017-04-15T04:16:36.096Z,1009.23
2017-04-15T04:17:45.685Z,1009.2
2017-04-15T04:18:56.081Z,1009.22
2017-04-15T04:20:05.995Z,1009.23
2017-04-15T04:21:15.605Z,1009.21
2017-04-15T04:22:25.196Z,1009.17
2017-04-15T04:23:35.098Z,1009.25
2017-04-15T04:24:45.259Z,1009.22
2017-04-15T04:25:55.208Z,1009.21
2017-04-15T04:27:05.414Z,1009.22
2017-04-15T04:28:15.646Z,1009.17
2017-04-15T04:29:25.563Z,1009.22
2017-04-15T04:30:35.325Z,1009.19
2017-04-15T04:31:45.583Z,1009.2
2017-04-15T04:32:55.501Z,1009.19
2017-04-15T04:34:05.404Z,1009.16
2017-04-15T04:35:15.684Z,1009.14
2017-04-15T04:36:25.740Z,1009.11
2017-04-15T04:37:35.633Z,1009.13
2017-04-15T04:38:45.560Z,1009.11
2017-04-15T04:39:55.772Z,1009.12
2017-04-15T04:41:06.008Z,1009.15
2017-04-15T04:42:15.454Z,1009.14
2017-04-15T04:43:25.377Z,1009.1
2017-04-15T04:44:35.308Z,1009.1
2017-04-15T04:45:45.215Z,1009.09
2017-04-15T04:46:54.505Z,1009.11
2017-04-15T04:48:04.909Z,1009.12
2017-04-15T04:49:14.848Z,1009.1
2017-04-15T04:50:25.082Z,1009.1
2017-04-15T04:51:34.990Z,1009.11
2017-04-15T04:52:44.898Z,1009.09
2017-04-15T04:53:54.651Z,1009.11
2017-04-15T04:55:04.864Z,1009.08
2017-04-15T04:56:14.758Z,1009.1
2017-04-15T04:57:24.356Z,1009.09
2017-04-15T04:58:34.579Z,1009.12
2017-04-15T04:59:44.636Z,1009.1
2017-04-15T05:00:54.530Z,1009.1
2017-04-15T05:02:04.126Z,1009.11
2017-04-15T05:03:14.062Z,1009.12
2017-04-15T05:04:24.072Z,1009.17
2017-04-15T05:05:34.135Z,1009.14
2017-04-15T05:06:44.496Z,1009.13
2017-04-15T05:07:54.385Z,1009.16
2017-04-15T05:09:03.739Z,1009.13
2017-04-15T05:10:13.351Z,1009.18
2017-04-15T05:11:23.744Z,1009.19
2017-04-15T05:12:33.967Z,1009.14
2017-04-15T05:13:43.908Z,1009.13
2017-04-15T05:14:54.121Z,1009.16
2017-04-15T05:16:04.352Z,1009.19
2017-04-15T05:17:14.723Z,1009.17
2017-04-15T05:18:24.619Z,1009.15
2017-04-15T05:19:34.518Z,1009.2
2017-04-15T05:20:43.801Z,1009.2
2017-04-15T05:21:53.725Z,1009.17
2017-04-15T05:23:03.780Z,1009.14
2017-04-15T05:24:13.712Z,1009.16
2017-04-15T05:25:24.142Z,1009.15
2017-04-15T05:26:34.039Z,1009.12
2017-04-15T05:27:43.946Z,1009.14
2017-04-15T05:28:54.310Z,1009.14
2017-04-15T05:30:04.211Z,1009.17
2017-04-15T05:31:14.106Z,1009.17
2017-04-15T05:32:24.301Z,1009.17
2017-04-15T05:33:33.893Z,1009.22
2017-04-15T05:34:43.942Z,1009.19
2017-04-15T05:35:54.154Z,1009.2
2017-04-15T05:37:04.359Z,1009.18
2017-04-15T05:38:14.290Z,1009.24
2017-04-15T05:39:23.878Z,1009.19
2017-04-15T05:40:33.880Z,1009.2
2017-04-15T05:41:43.789Z,1009.19
2017-04-15T05:42:53.713Z,1009.26
2017-04-15T05:44:03.918Z,1009.2
2017-04-15T05:45:13.830Z,1009.24
2017-04-15T05:46:23.839Z,1009.21
2017-04-15T05:47:34.043Z,1009.22
2017-04-15T05:48:43.936Z,1009.21
2017-04-15T05:49:54.158Z,1009.19
2017-04-15T05:51:04.372Z,1009.18
2017-04-15T05:52:13.925Z,1009.18
2017-04-15T05:53:24.126Z,1009.17
2017-04-15T05:54:34.032Z,1009.19
2017-04-15T05:55:43.644Z,1009.16
2017-04-15T05:56:53.947Z,1009.17
2017-04-15T05:58:03.941Z,1009.23
2017-04-15T05:59:13.707Z,1009.21
2017-04-15T06:00:23.951Z,1009.21
2017-04-15T06:01:34.160Z,1009.17
2017-04-15T06:02:43.757Z,1009.17
2017-04-15T06:03:53.473Z,1009.17
2017-04-15T06:05:03.765Z,1009.19
2017-04-15T06:06:13.380Z,1009.21
2017-04-15T06:07:23.287Z,1009.23
2017-04-15T06:08:33.494Z,1009.17
2017-04-15T06:09:43.538Z,1009.23
2017-04-15T06:10:54.119Z,1009.21
2017-04-15T06:12:04.033Z,1009.22
2017-04-15T06:13:14.247Z,1009.19
2017-04-15T06:14:24.154Z,1009.24
2017-04-15T06:15:34.515Z,1009.22
2017-04-15T06:16:44.721Z,1009.22
2017-04-15T06:17:54.623Z,1009.26
2017-04-15T06:19:04.518Z,1009.22
2017-04-15T06:20:14.413Z,1009.22
2017-04-15T06:21:24.155Z,1009.26
2017-04-15T06:22:33.755Z,1009.22
2017-04-15T06:23:43.373Z,1009.29
2017-04-15T06:24:53.303Z,1009.28
2017-04-15T06:26:03.541Z,1009.29
2017-04-15T06:27:13.277Z,1009.25
2017-04-15T06:28:23.482Z,1009.29
2017-04-15T06:29:33.393Z,1009.23
2017-04-15T06:30:43.283Z,1009.23
2017-04-15T06:31:53.198Z,1009.22
2017-04-15T06:33:03.506Z,1009.28
2017-04-15T06:34:13.720Z,1009.25
2017-04-15T06:35:23.633Z,1009.26
2017-04-15T06:36:33.842Z,1009.3
2017-04-15T06:37:44.065Z,1009.23
2017-04-15T06:38:53.762Z,1009.27
2017-04-15T06:40:03.374Z,1009.28
2017-04-15T06:41:13.297Z,1009.24
2017-04-15T06:42:23.204Z,1009.24
2017-04-15T06:43:33.438Z,1009.25
2017-04-15T06:44:44.126Z,1009.25
2017-04-15T06:45:54.334Z,1009.27
2017-04-15T06:47:04.628Z,1009.27
2017-04-15T06:48:14.835Z,1009.22
2017-04-15T06:49:24.496Z,1009.25
2017-04-15T06:50:34.492Z,1009.23
2017-04-15T06:51:44.735Z,1009.21
2017-04-15T06:52:54.835Z,1009.25
2017-04-15T06:54:04.438Z,1009.18
2017-04-15T06:55:14.652Z,1009.3
2017-04-15T06:56:24.962Z,1009.27
2017-04-15T06:57:34.980Z,1009.25
2017-04-15T06:58:45.227Z,1009.26
2017-04-15T06:59:55.638Z,1009.27
2017-04-15T07:01:05.544Z,1009.24
2017-04-15T07:02:16.066Z,1009.27
2017-04-15T07:03:26.276Z,1009.31
2017-04-15T07:04:36.190Z,1009.33
2017-04-15T07:05:46.094Z,1009.26
2017-04-15T07:06:56.314Z,1009.33
2017-04-15T07:08:06.327Z,1009.32
2017-04-15T07:09:16.235Z,1009.31
2017-04-15T07:10:26.445Z,1009.32
2017-04-15T07:11:36.352Z,1009.27
2017-04-15T07:12:46.245Z,1009.3
2017-04-15T07:13:56.564Z,1009.28
2017-04-15T07:15:05.857Z,1009.28
2017-04-15T07:16:15.781Z,1009.27
2017-04-15T07:17:26.000Z,1009.28
2017-04-15T07:18:35.604Z,1009.31
2017-04-15T07:19:45.614Z,1009.27
2017-04-15T07:20:55.523Z,1009.27
2017-04-15T07:22:05.729Z,1009.28
2017-04-15T07:23:14.714Z,1009.29
2017-04-15T07:24:24.638Z,1009.27
2017-04-15T07:25:34.638Z,1009.31
2017-04-15T07:26:44.542Z,1009.29
2017-04-15T07:27:54.744Z,1009.29
2017-04-15T07:29:04.954Z,1009.28
2017-04-15T07:30:14.553Z,1009.31
2017-04-15T07:31:24.856Z,1009.3
2017-04-15T07:32:34.745Z,1009.32
2017-04-15T07:33:44.969Z,1009.33
2017-04-15T07:34:54.919Z,1009.29
2017-04-15T07:36:05.138Z,1009.33
2017-04-15T07:37:15.439Z,1009.37
2017-04-15T07:38:25.337Z,1009.33
2017-04-15T07:39:35.551Z,1009.33
2017-04-15T07:40:45.863Z,1009.31
2017-04-15T07:41:56.087Z,1009.34
2017-04-15T07:43:06.455Z,1009.37
2017-04-15T07:44:16.384Z,1009.33
2017-04-15T07:45:26.327Z,1009.35
2017-04-15T07:46:36.253Z,1009.31
2017-04-15T07:47:47.002Z,1009.4
2017-04-15T07:48:56.871Z,1009.43
2017-04-15T07:50:06.154Z,1009.44
2017-04-15T07:51:16.360Z,1009.44
2017-04-15T07:52:26.294Z,1009.43
2017-04-15T07:53:36.285Z,1009.38
2017-04-15T07:54:46.332Z,1009.44
2017-04-15T07:55:56.539Z,1009.46
2017-04-15T07:57:06.485Z,1009.51
2017-04-15T07:58:16.391Z,1009.5
2017-04-15T07:59:25.977Z,1009.47
2017-04-15T08:00:36.307Z,1009.52
2017-04-15T08:01:45.919Z,1009.59
2017-04-15T08:02:54.910Z,1009.61
2017-04-15T08:04:04.205Z,1009.59
2017-04-15T08:05:14.120Z,1009.61
2017-04-15T08:06:24.112Z,1009.6
2017-04-15T08:07:34.325Z,1009.57
2017-04-15T08:08:44.546Z,1009.63
2017-04-15T08:09:54.747Z,1009.57
2017-04-15T08:11:04.649Z,1009.62
2017-04-15T08:12:14.340Z,1009.61
2017-04-15T08:13:23.944Z,1009.65
2017-04-15T08:14:33.874Z,1009.66
2017-04-15T08:15:43.506Z,1009.62
2017-04-15T08:16:53.742Z,1009.67
2017-04-15T08:18:03.781Z,1009.7
2017-04-15T08:19:13.690Z,1009.69
2017-04-15T08:20:23.602Z,1009.72
2017-04-15T08:21:33.520Z,1009.73
2017-04-15T08:22:43.122Z,1009.73
2017-04-15T08:23:52.526Z,1009.75
2017-04-15T08:25:02.751Z,1009.77
2017-04-15T08:26:12.649Z,1009.76
2017-04-15T08:27:22.545Z,1009.78
2017-04-15T08:28:32.133Z,1009.8
2017-04-15T08:29:41.838Z,1009.82
2017-04-15T08:30:51.784Z,1009.8
2017-04-15T08:32:01.994Z,1009.86
2017-04-15T08:33:11.916Z,1009.82
2017-04-15T08:34:22.137Z,1009.84
2017-04-15T08:35:32.152Z,1009.88
2017-04-15T08:36:42.432Z,1009.88
2017-04-15T08:37:53.502Z,1009.86
2017-04-15T08:39:03.151Z,1009.81
2017-04-15T08:40:13.393Z,1009.86
2017-04-15T08:41:23.107Z,1009.87
2017-04-15T08:42:32.716Z,1009.87
2017-04-15T08:43:42.921Z,1009.89
2017-04-15T08:44:52.830Z,1009.91
2017-04-15T08:46:03.085Z,1009.9
2017-04-15T08:47:13.403Z,1009.91
2017-04-15T08:48:23.622Z,1009.95
2017-04-15T08:49:33.540Z,1009.94
2017-04-15T08:50:43.159Z,1009.95
2017-04-15T08:51:53.073Z,1009.95
2017-04-15T08:53:03.093Z,1009.94
2017-04-15T08:54:12.996Z,1009.95
2017-04-15T08:55:22.922Z,1009.95
2017-04-15T08:56:32.518Z,1009.92
2017-04-15T08:57:42.424Z,1009.95
2017-04-15T08:58:52.430Z,1009.97
2017-04-15T09:00:02.332Z,1009.95
2017-04-15T09:01:12.224Z,1010.03
2017-04-15T09:02:22.127Z,1010.01
2017-04-15T09:03:32.038Z,1010.01
2017-04-15T09:04:42.412Z,1009.99
2017-04-15T09:05:54.038Z,1010.01
2017-04-15T09:07:05.604Z,1010.04
2017-04-15T09:08:15.209Z,1010.08
2017-04-15T09:09:25.113Z,1010.02
2017-04-15T09:10:35.623Z,1010.06
2017-04-15T09:11:45.226Z,1010.08
2017-04-15T09:12:55.259Z,1010.08
2017-04-15T09:14:05.475Z,1010.08
2017-04-15T09:15:14.772Z,1010.09
2017-04-15T09:16:24.537Z,1010.11
2017-04-15T09:17:34.882Z,1010.1
2017-04-15T09:18:45.090Z,1010.16
2017-04-15T09:19:55.627Z,1010.14
2017-04-15T09:21:05.715Z,1010.09
2017-04-15T09:22:15.786Z,1010.14
2017-04-15T09:23:26.010Z,1010.14
2017-04-15T09:24:35.924Z,1010.15
2017-04-15T09:25:46.154Z,1010.14
2017-04-15T09:26:56.381Z,1010.14
2017-04-15T09:28:06.783Z,1010.13
2017-04-15T09:29:16.406Z,1010.13
2017-04-15T09:30:26.340Z,1010.13
2017-04-15T09:31:35.973Z,1010.12
2017-04-15T09:32:45.878Z,1010.12
2017-04-15T09:33:56.253Z,1010.11
2017-04-15T09:35:06.449Z,1010.11
2017-04-15T09:36:16.051Z,1010.12
2017-04-15T09:37:25.943Z,1010.08
2017-04-15T09:38:35.876Z,1010.14
2017-04-15T09:39:45.927Z,1010.16
2017-04-15T09:40:55.844Z,1010.13
2017-04-15T09:42:05.435Z,1010.17
2017-04-15T09:43:15.647Z,1010.16
2017-04-15T09:44:25.242Z,1010.15
2017-04-15T09:45:35.285Z,1010.15
2017-04-15T09:46:45.212Z,1010.17
2017-04-15T09:47:55.128Z,1010.17
2017-04-15T09:49:05.028Z,1010.15
2017-04-15T09:50:15.239Z,1010.16
2017-04-15T09:51:25.287Z,1010.21
2017-04-15T09:52:35.508Z,1010.17
2017-04-15T09:53:44.793Z,1010.17
2017-04-15T09:54:54.076Z,1010.2
2017-04-15T09:56:04.291Z,1010.18
2017-04-15T09:57:14.355Z,1010.22
2017-04-15T09:58:24.601Z,1010.19
2017-04-15T09:59:34.814Z,1010.21
2017-04-15T10:00:44.561Z,1010.24
2017-04-15T10:01:54.766Z,1010.23
2017-04-15T10:03:04.530Z,1010.21
2017-04-15T10:04:14.755Z,1010.2
2017-04-15T10:05:24.656Z,1010.19
2017-04-15T10:06:34.865Z,1010.18
2017-04-15T10:07:45.068Z,1010.2
2017-04-15T10:08:55.128Z,1010.23
2017-04-15T10:10:05.015Z,1010.27
2017-04-15T10:11:14.939Z,1010.26
2017-04-15T10:12:24.874Z,1010.23
2017-04-15T10:13:34.815Z,1010.25
2017-04-15T10:14:45.211Z,1010.24
2017-04-15T10:15:55.440Z,1010.21
2017-04-15T10:17:05.051Z,1010.2
2017-04-15T10:18:15.013Z,1010.21
2017-04-15T10:19:25.313Z,1010.25
2017-04-15T10:20:35.396Z,1010.24
2017-04-15T10:21:45.631Z,1010.24
2017-04-15T10:22:55.249Z,1010.25
2017-04-15T10:24:05.518Z,1010.2
2017-04-15T10:25:15.144Z,1010.23
2017-04-15T10:26:25.223Z,1010.22
2017-04-15T10:27:35.169Z,1010.26
2017-04-15T10:28:45.438Z,1010.27
2017-04-15T10:29:55.378Z,1010.31
2017-04-15T10:31:04.990Z,1010.26
2017-04-15T10:32:14.120Z,1010.29
2017-04-15T10:33:24.334Z,1010.28
2017-04-15T10:34:34.557Z,1010.33
2017-04-15T10:35:44.766Z,1010.27
2017-04-15T10:36:54.660Z,1010.3
2017-04-15T10:38:04.406Z,1010.37
2017-04-15T10:39:14.316Z,1010.35
2017-04-15T10:40:24.546Z,1010.37
2017-04-15T10:41:34.569Z,1010.38
2017-04-15T10:42:44.616Z,1010.37
2017-04-15T10:43:54.979Z,1010.39
2017-04-15T10:45:05.176Z,1010.4
2017-04-15T10:46:15.105Z,1010.41
2017-04-15T10:47:25.428Z,1010.4
2017-04-15T10:48:35.653Z,1010.39
2017-04-15T10:49:45.968Z,1010.39
2017-04-15T10:50:56.186Z,1010.42
2017-04-15T10:52:06.401Z,1010.46
2017-04-15T10:53:16.302Z,1010.41
2017-04-15T10:54:26.529Z,1010.43
2017-04-15T10:55:36.856Z,1010.43
2017-04-15T10:56:47.064Z,1010.39
2017-04-15T10:57:57.277Z,1010.47
2017-04-15T10:59:06.559Z,1010.42
2017-04-15T11:00:16.769Z,1010.41
2017-04-15T11:01:27.082Z,1010.44
2017-04-15T11:02:37.301Z,1010.45
2017-04-15T11:03:47.228Z,1010.4
2017-04-15T11:04:57.452Z,1010.5
2017-04-15T11:06:06.533Z,1010.47
2017-04-15T11:07:17.329Z,1010.43
2017-04-15T11:08:27.225Z,1010.41
2017-04-15T11:09:36.889Z,1010.44
2017-04-15T11:10:47.365Z,1010.41
2017-04-15T11:11:56.965Z,1010.44
2017-04-15T11:13:07.012Z,1010.52
2017-04-15T11:14:17.232Z,1010.46
2017-04-15T11:15:27.159Z,1010.45
2017-04-15T11:16:36.486Z,1010.46
2017-04-15T11:17:46.703Z,1010.45
2017-04-15T11:18:57.074Z,1010.43
2017-04-15T11:20:06.973Z,1010.41
2017-04-15T11:21:16.883Z,1010.44
2017-04-15T11:22:26.813Z,1010.43
2017-04-15T11:23:37.016Z,1010.42
2017-04-15T11:24:47.074Z,1010.42
2017-04-15T11:25:57.285Z,1010.41
2017-04-15T11:27:07.205Z,1010.43
2017-04-15T11:28:16.809Z,1010.41
2017-04-15T11:29:26.780Z,1010.43
2017-04-15T11:30:36.525Z,1010.42
2017-04-15T11:31:46.966Z,1010.43
2017-04-15T11:32:56.717Z,1010.45
2017-04-15T11:34:06.559Z,1010.46
2017-04-15T11:35:16.346Z,1010.47
2017-04-15T11:36:26.735Z,1010.47
2017-04-15T11:37:36.628Z,1010.47
2017-04-15T11:38:46.217Z,1010.47
2017-04-15T11:39:55.823Z,1010.49
2017-04-15T11:41:05.729Z,1010.49
2017-04-15T11:42:15.793Z,1010.48
2017-04-15T11:43:25.080Z,1010.46
2017-04-15T11:44:35.333Z,1010.42
2017-04-15T11:45:45.275Z,1010.38
2017-04-15T11:46:57.026Z,1010.39
2017-04-15T11:48:07.311Z,1010.37
2017-04-15T11:49:17.545Z,1010.4
2017-04-15T11:53:00.139Z,1010.42
2017-04-15T11:54:10.204Z,1010.4
2017-04-15T11:55:20.470Z,1010.41
2017-04-15T11:56:30.425Z,1010.44
2017-04-15T11:57:40.049Z,1010.4
2017-04-15T11:58:50.502Z,1010.45
2017-04-15T12:00:00.420Z,1010.47
2017-04-15T12:01:10.785Z,1010.43
2017-04-15T12:02:20.782Z,1010.43
2017-04-15T12:03:31.392Z,1010.39
2017-04-15T12:04:41.301Z,1010.41
2017-04-15T12:05:51.411Z,1010.38
2017-04-15T12:07:01.654Z,1010.38
2017-04-15T12:08:11.341Z,1010.41
2017-04-15T12:09:20.968Z,1010.44
2017-04-15T12:10:31.038Z,1010.4
2017-04-15T12:11:41.185Z,1010.41
2017-04-15T12:12:51.400Z,1010.41
2017-04-15T12:14:01.307Z,1010.42
2017-04-15T12:15:11.204Z,1010.43
2017-04-15T12:16:21.588Z,1010.46
2017-04-15T12:17:32.374Z,1010.46
2017-04-15T12:18:43.687Z,1010.47
2017-04-15T12:19:54.049Z,1010.46
2017-04-15T12:21:05.428Z,1010.39
2017-04-15T12:22:16.256Z,1010.37
2017-04-15T12:23:26.582Z,1010.33
2017-04-15T12:24:37.339Z,1010.39
2017-04-15T12:25:48.022Z,1010.4
2017-04-15T12:26:57.915Z,1010.43
2017-04-15T12:28:06.743Z,1010.45
2017-04-15T12:29:16.646Z,1010.45
2017-04-15T12:30:26.551Z,1010.44
2017-04-15T12:31:36.755Z,1010.48
2017-04-15T12:32:46.667Z,1010.48
2017-04-15T12:33:57.039Z,1010.44
2017-04-15T12:35:06.947Z,1010.41
2017-04-15T12:36:17.151Z,1010.45
2017-04-15T12:37:27.349Z,1010.43
2017-04-15T12:38:36.370Z,1010.42
2017-04-15T12:39:46.136Z,1010.45
2017-04-15T12:40:56.041Z,1010.47
2017-04-15T12:42:05.662Z,1010.49
2017-04-15T12:43:15.279Z,1010.48
2017-04-15T12:44:25.551Z,1010.52
2017-04-15T12:45:35.372Z,1010.48
2017-04-15T12:46:45.709Z,1010.52
2017-04-15T12:47:55.807Z,1010.55
2017-04-15T12:49:04.810Z,1010.54
2017-04-15T12:50:15.010Z,1010.56
2017-04-15T12:51:25.034Z,1010.54
2017-04-15T12:52:35.261Z,1010.54
2017-04-15T12:53:45.477Z,1010.55
2017-04-15T12:54:55.691Z,1010.52
2017-04-15T12:56:05.285Z,1010.59
2017-04-15T12:57:15.601Z,1010.55
2017-04-15T12:58:25.531Z,1010.53
2017-04-15T12:59:35.426Z,1010.6
2017-04-15T13:00:45.016Z,1010.63
2017-04-15T13:01:55.223Z,1010.6
2017-04-15T13:03:04.920Z,1010.61
2017-04-15T13:04:14.828Z,1010.66
2017-04-15T13:05:24.446Z,1010.63
2017-04-15T13:06:34.776Z,1010.62
2017-04-15T13:07:44.982Z,1010.61
2017-04-15T13:08:54.674Z,1010.64
2017-04-15T13:10:04.600Z,1010.62
2017-04-15T13:11:14.806Z,1010.62
2017-04-15T13:12:24.715Z,1010.63
2017-04-15T13:13:34.937Z,1010.61
2017-04-15T13:14:45.240Z,1010.64
2017-04-15T13:15:55.445Z,1010.64
2017-04-15T13:17:05.039Z,1010.62
2017-04-15T13:18:14.935Z,1010.61
2017-04-15T13:19:25.159Z,1010.66
2017-04-15T13:20:35.525Z,1010.62
2017-04-15T13:21:45.456Z,1010.62
2017-04-15T13:22:55.383Z,1010.59
2017-04-15T13:24:05.299Z,1010.6
2017-04-15T13:25:15.518Z,1010.63
2017-04-15T13:26:25.871Z,1010.66
2017-04-15T13:27:36.069Z,1010.65
2017-04-15T13:28:45.990Z,1010.69
2017-04-15T13:29:55.922Z,1010.7
2017-04-15T13:31:05.822Z,1010.73
2017-04-15T13:32:16.182Z,1010.74
2017-04-15T13:33:25.688Z,1010.74
2017-04-15T13:34:36.100Z,1010.71
2017-04-15T13:35:46.305Z,1010.76
2017-04-15T13:36:56.443Z,1010.76
2017-04-15T13:38:06.812Z,1010.75
2017-04-15T13:39:16.399Z,1010.68
2017-04-15T13:40:26.662Z,1010.69
2017-04-15T13:41:36.864Z,1010.68
2017-04-15T13:42:47.084Z,1010.67
2017-04-15T13:43:56.639Z,1010.69
2017-04-15T13:45:07.209Z,1010.67
2017-04-15T13:46:16.814Z,1010.64
2017-04-15T13:47:26.715Z,1010.61
2017-04-15T13:48:36.313Z,1010.64
2017-04-15T13:49:46.916Z,1010.66
2017-04-15T13:50:56.518Z,1010.69
2017-04-15T13:52:06.808Z,1010.63
2017-04-15T13:53:16.420Z,1010.62
2017-04-15T13:54:26.329Z,1010.59
2017-04-15T13:55:36.395Z,1010.58
2017-04-15T13:56:46.326Z,1010.6
2017-04-15T13:57:56.557Z,1010.6
2017-04-15T13:59:06.498Z,1010.61
2017-04-15T14:00:16.402Z,1010.6
2017-04-15T14:01:26.776Z,1010.63
2017-04-15T14:02:36.390Z,1010.62
2017-04-15T14:03:46.607Z,1010.59
2017-04-15T14:04:56.832Z,1010.58
2017-04-15T14:06:07.142Z,1010.61
2017-04-15T14:07:17.192Z,1010.61
2017-04-15T14:08:27.082Z,1010.63
2017-04-15T14:09:37.293Z,1010.61
2017-04-15T14:10:47.500Z,1010.56
2017-04-15T14:11:57.719Z,1010.61